createdAt,value
2018-04-18T00:01:11.110Z,4.93
2018-04-18T00:03:37.345Z,5.97
2018-04-18T00:06:03.593Z,6.30
2018-04-18T00:08:30.594Z,5.60
2018-04-18T00:10:56.805Z,4.90
2018-04-18T00:13:23.022Z,7.73
2018-04-18T00:15:49.265Z,5.03
2018-04-18T00:18:15.526Z,4.80
2018-04-18T00:20:41.773Z,9.13
2018-04-18T00:23:08.784Z,5.80
2018-04-18T00:25:35.034Z,5.07
2018-04-18T00:28:01.285Z,4.60
2018-04-18T00:30:27.482Z,4.70
2018-04-18T00:32:53.746Z,6.73
2018-04-18T00:35:20.094Z,7.73
2018-04-18T00:37:46.338Z,5.10
2018-04-18T00:40:12.538Z,4.77
2018-04-18T00:42:38.766Z,6.40
2018-04-18T00:45:05.068Z,3.47
2018-04-18T00:47:32.066Z,3.90
2018-04-18T00:49:58.335Z,6.70
2018-04-18T00:52:24.568Z,4.13
2018-04-18T00:54:51.583Z,4.53
2018-04-18T00:57:17.840Z,5.40
2018-04-18T00:59:44.051Z,7.13
2018-04-18T01:02:10.339Z,4.30
2018-04-18T01:04:36.584Z,5.87
2018-04-18T01:07:02.871Z,4.87
2018-04-18T01:09:29.963Z,5.10
2018-04-18T01:11:56.275Z,7.27
2018-04-18T01:14:22.574Z,4.73
2018-04-18T01:16:49.619Z,5.37
2018-04-18T01:19:16.647Z,5.13
2018-04-18T01:21:42.960Z,4.77
2018-04-18T01:24:09.233Z,3.87
2018-04-18T01:26:36.271Z,3.70
2018-04-18T01:29:03.322Z,4.23
2018-04-18T01:31:30.266Z,4.90
2018-04-18T01:33:57.235Z,4.20
2018-04-18T01:36:23.512Z,4.33
2018-04-18T01:38:49.776Z,6.47
2018-04-18T01:41:15.985Z,4.20
2018-04-18T01:43:42.246Z,6.50
2018-04-18T01:46:08.525Z,7.87
2018-04-18T01:48:34.877Z,4.00
2018-04-18T01:51:01.850Z,9.57
2018-04-18T01:53:28.111Z,4.50
2018-04-18T01:55:54.407Z,4.10
2018-04-18T01:58:20.664Z,3.60
2018-04-18T02:00:46.983Z,3.60
2018-04-18T02:03:13.275Z,4.43
2018-04-18T02:05:40.247Z,4.23
2018-04-18T02:08:06.475Z,3.67
2018-04-18T02:10:32.741Z,3.70
2018-04-18T02:12:58.970Z,4.17
2018-04-18T02:15:25.201Z,4.73
2018-04-18T02:17:52.520Z,4.43
2018-04-18T02:20:18.742Z,4.60
2018-04-18T02:22:45.027Z,5.70
2018-04-18T02:25:11.292Z,7.10
2018-04-18T02:27:37.562Z,3.60
2018-04-18T02:30:03.888Z,4.83
2018-04-18T02:32:30.075Z,3.53
2018-04-18T02:34:56.306Z,4.00
2018-04-18T02:37:22.714Z,4.63
2018-04-18T02:39:54.074Z,3.67
2018-04-18T02:42:21.027Z,3.60
2018-04-18T02:44:47.245Z,4.00
2018-04-18T02:47:14.223Z,3.37
2018-04-18T02:49:40.532Z,4.93
2018-04-18T02:52:06.822Z,5.57
2018-04-18T02:54:33.056Z,3.73
2018-04-18T02:56:59.348Z,11.10
2018-04-18T02:59:25.617Z,4.40
2018-04-18T03:01:51.880Z,3.47
2018-04-18T03:04:18.127Z,4.70
2018-04-18T03:06:44.364Z,4.23
2018-04-18T03:09:10.636Z,4.60
2018-04-18T03:11:36.869Z,4.53
2018-04-18T03:14:03.071Z,8.63
2018-04-18T03:16:29.292Z,6.70
2018-04-18T03:18:55.531Z,5.77
2018-04-18T03:21:21.824Z,4.33
2018-04-18T03:23:48.044Z,4.20
2018-04-18T03:26:14.328Z,5.27
2018-04-18T03:28:40.608Z,4.47
2018-04-18T03:31:06.845Z,5.27
2018-04-18T03:33:33.053Z,4.30
2018-04-18T03:35:59.413Z,6.00
2018-04-18T03:38:25.613Z,3.73
2018-04-18T03:40:51.865Z,6.70
2018-04-18T03:43:18.123Z,4.33
2018-04-18T03:45:44.358Z,4.43
2018-04-18T03:48:10.636Z,6.13
2018-04-18T03:50:36.914Z,5.27
2018-04-18T03:53:03.228Z,5.00
2018-04-18T03:55:29.505Z,5.67
2018-04-18T03:58:02.144Z,3.97
2018-04-18T04:00:28.445Z,5.00
2018-04-18T04:02:54.660Z,4.13
2018-04-18T04:05:20.869Z,6.30
2018-04-18T04:07:47.146Z,4.60
2018-04-18T04:10:13.441Z,4.13
2018-04-18T04:12:39.673Z,4.93
2018-04-18T04:15:05.972Z,7.10
2018-04-18T04:17:44.552Z,4.07
2018-04-18T04:20:23.149Z,4.27
2018-04-18T04:23:01.657Z,5.00
2018-04-18T04:25:28.981Z,6.30
2018-04-18T04:27:55.232Z,4.63
2018-04-18T04:30:21.505Z,4.50
2018-04-18T04:32:47.807Z,6.53
2018-04-18T04:35:14.080Z,4.27
2018-04-18T04:37:41.074Z,5.33
2018-04-18T04:40:07.393Z,4.27
2018-04-18T04:42:33.700Z,3.87
2018-04-18T04:45:00.767Z,6.93
2018-04-18T04:47:26.952Z,6.70
2018-04-18T04:49:53.228Z,5.87
2018-04-18T04:52:19.514Z,7.13
2018-04-18T04:54:45.821Z,6.20
2018-04-18T04:57:13.097Z,5.73
2018-04-18T04:59:39.346Z,6.37
2018-04-18T05:02:06.810Z,5.30
2018-04-18T05:04:33.053Z,5.13
2018-04-18T05:07:01.422Z,4.40
2018-04-18T05:09:27.705Z,5.07
2018-04-18T05:11:53.962Z,4.80
2018-04-18T05:14:20.917Z,4.40
2018-04-18T05:16:47.169Z,4.57
2018-04-18T05:19:13.428Z,4.80
2018-04-18T05:21:39.701Z,8.27
2018-04-18T05:24:05.958Z,4.53
2018-04-18T05:26:32.211Z,5.30
2018-04-18T05:29:00.537Z,12.53
2018-04-18T05:31:26.766Z,5.07
2018-04-18T05:33:53.043Z,7.73
2018-04-18T05:36:19.314Z,4.43
2018-04-18T05:38:46.349Z,9.67
2018-04-18T05:41:12.674Z,6.60
2018-04-18T05:43:39.650Z,6.20
2018-04-18T05:46:05.864Z,5.20
2018-04-18T05:48:32.134Z,6.00
2018-04-18T05:50:58.435Z,7.90
2018-04-18T05:53:25.484Z,8.77
2018-04-18T05:55:51.806Z,5.87
2018-04-18T05:58:18.810Z,7.70
2018-04-18T06:00:45.099Z,7.57
2018-04-18T06:03:11.315Z,8.77
2018-04-18T06:05:37.625Z,12.50
2018-04-18T06:08:04.634Z,7.20
2018-04-18T06:10:30.861Z,10.30
2018-04-18T06:12:57.129Z,6.40
2018-04-18T06:15:24.131Z,7.57
2018-04-18T06:17:50.383Z,7.73
2018-04-18T06:20:16.652Z,9.57
2018-04-18T06:22:42.950Z,11.93
2018-04-18T06:25:09.194Z,21.03
2018-04-18T06:27:36.189Z,16.07
2018-04-18T06:30:02.479Z,14.87
2018-04-18T06:32:28.768Z,22.33
2018-04-18T06:34:55.037Z,16.73
2018-04-18T06:37:22.141Z,14.40
2018-04-18T06:39:48.413Z,21.03
2018-04-18T06:42:15.360Z,22.13
2018-04-18T06:44:41.668Z,17.20
2018-04-18T06:47:08.733Z,25.97
2018-04-18T06:49:35.755Z,16.50
2018-04-18T06:52:02.034Z,33.73
2018-04-18T06:54:29.426Z,40.50
2018-04-18T06:56:55.735Z,28.67
2018-04-18T06:59:23.090Z,29.53
2018-04-18T07:01:49.385Z,31.40
2018-04-18T07:04:15.587Z,24.87
2018-04-18T07:06:41.857Z,17.97
2018-04-18T07:09:08.158Z,18.30
2018-04-18T07:11:34.426Z,23.00
2018-04-18T07:14:00.767Z,24.93
2018-04-18T07:16:27.039Z,21.03
2018-04-18T07:18:53.316Z,22.33
2018-04-18T07:21:19.568Z,22.30
2018-04-18T07:23:45.885Z,19.50
2018-04-18T07:26:12.142Z,20.77
2018-04-18T07:28:38.402Z,19.30
2018-04-18T07:31:04.686Z,19.07
2018-04-18T07:33:30.935Z,18.40
2018-04-18T07:35:57.230Z,16.77
2018-04-18T07:38:23.518Z,14.00
2018-04-18T07:40:50.527Z,14.40
2018-04-18T07:43:16.734Z,20.10
2018-04-18T07:45:42.983Z,14.83
2018-04-18T07:48:09.305Z,16.77
2018-04-18T07:50:35.619Z,16.67
2018-04-18T07:53:01.926Z,18.27
2018-04-18T07:55:28.180Z,15.60
2018-04-18T07:57:54.500Z,19.07
2018-04-18T08:00:20.820Z,25.43
2018-04-18T08:02:47.087Z,16.37
2018-04-18T08:05:13.416Z,15.87
2018-04-18T08:07:39.686Z,22.00
2018-04-18T08:10:05.915Z,18.83
2018-04-18T08:12:33.029Z,19.73
2018-04-18T08:14:59.270Z,20.50
2018-04-18T08:17:25.504Z,23.80
2018-04-18T08:19:51.787Z,14.27
2018-04-18T08:22:18.075Z,18.07
2018-04-18T08:24:44.367Z,15.03
2018-04-18T08:27:10.664Z,16.97
2018-04-18T08:29:36.938Z,14.90
2018-04-18T08:32:03.236Z,12.60
2018-04-18T08:34:29.558Z,14.50
2018-04-18T08:36:55.819Z,14.53
2018-04-18T08:39:22.145Z,9.90
2018-04-18T08:41:48.430Z,13.80
2018-04-18T08:44:14.743Z,11.43
2018-04-18T08:46:41.759Z,11.30
2018-04-18T08:49:08.070Z,14.87
2018-04-18T08:51:34.361Z,12.67
2018-04-18T08:54:00.635Z,11.13
2018-04-18T08:56:26.886Z,16.63
2018-04-18T08:58:53.207Z,13.03
2018-04-18T09:01:19.490Z,13.03
2018-04-18T09:03:45.835Z,14.27
2018-04-18T09:06:12.127Z,16.23
2018-04-18T09:08:39.097Z,14.23
2018-04-18T09:11:05.410Z,17.70
2018-04-18T09:13:31.672Z,13.30
2018-04-18T09:15:58.082Z,15.53
2018-04-18T09:18:24.379Z,15.00
2018-04-18T09:20:51.409Z,15.93
2018-04-18T09:23:17.668Z,16.23
2018-04-18T09:25:43.926Z,13.53
2018-04-18T09:28:10.163Z,13.67
2018-04-18T09:30:36.446Z,14.17
2018-04-18T09:33:03.461Z,17.07
2018-04-18T09:35:29.733Z,11.80
2018-04-18T09:37:56.774Z,20.10
2018-04-18T09:40:23.772Z,16.70
2018-04-18T09:42:50.036Z,18.67
2018-04-18T09:45:17.033Z,11.57
2018-04-18T09:47:43.309Z,25.80
2018-04-18T09:50:10.275Z,10.20
2018-04-18T09:52:37.248Z,13.90
2018-04-18T09:55:03.598Z,9.10
2018-04-18T09:57:29.857Z,12.50
2018-04-18T09:59:56.175Z,10.97
2018-04-18T10:02:28.412Z,12.27
2018-04-18T10:04:54.754Z,14.07
2018-04-18T10:07:21.041Z,24.43
2018-04-18T10:09:48.073Z,12.77
2018-04-18T10:12:15.038Z,15.03
2018-04-18T10:14:41.321Z,11.83
2018-04-18T10:17:07.625Z,11.30
2018-04-18T10:19:33.901Z,18.50
2018-04-18T10:22:00.970Z,13.30
2018-04-18T10:24:27.962Z,7.33
2018-04-18T10:26:54.241Z,6.13
2018-04-18T10:29:21.262Z,5.93
2018-04-18T10:31:47.536Z,7.57
2018-04-18T10:34:13.787Z,8.23
2018-04-18T10:36:40.061Z,6.33
2018-04-18T10:39:07.186Z,9.17
2018-04-18T10:41:33.433Z,8.17
2018-04-18T10:44:00.473Z,7.97
2018-04-18T10:46:26.712Z,5.03
2018-04-18T10:48:53.725Z,4.63
2018-04-18T10:51:20.005Z,9.97
2018-04-18T10:53:46.217Z,11.47
2018-04-18T10:56:13.265Z,5.13
2018-04-18T10:58:40.266Z,10.63
2018-04-18T11:01:06.502Z,6.30
2018-04-18T11:03:32.746Z,6.93
2018-04-18T11:05:59.039Z,4.90
2018-04-18T11:08:25.242Z,4.50
2018-04-18T11:10:51.462Z,5.87
2018-04-18T11:13:17.725Z,6.43
2018-04-18T11:15:44.010Z,3.10
2018-04-18T11:18:10.268Z,5.43
2018-04-18T11:20:36.496Z,4.57
2018-04-18T11:23:02.785Z,2.57
2018-04-18T11:25:29.782Z,2.63
2018-04-18T11:27:56.054Z,4.40
2018-04-18T11:30:22.329Z,2.90
2018-04-18T11:32:48.598Z,3.17
2018-04-18T11:35:14.853Z,5.93
2018-04-18T11:37:41.059Z,3.87
2018-04-18T11:40:07.280Z,2.77
2018-04-18T11:42:33.627Z,6.53
2018-04-18T11:44:59.923Z,3.77
2018-04-18T11:47:26.160Z,3.50
2018-04-18T11:49:52.484Z,4.03
2018-04-18T11:52:18.746Z,5.10
2018-04-18T11:54:44.974Z,3.20
2018-04-18T11:57:12.000Z,5.50
2018-04-18T11:59:38.230Z,4.50
2018-04-18T12:02:04.489Z,3.80
2018-04-18T12:04:31.523Z,3.57
2018-04-18T12:06:57.782Z,3.27
2018-04-18T12:09:24.786Z,2.40
2018-04-18T12:11:51.083Z,4.60
2018-04-18T12:14:17.450Z,9.87
2018-04-18T12:16:43.708Z,2.87
2018-04-18T12:19:10.721Z,3.83
2018-04-18T12:21:37.001Z,6.80
2018-04-18T12:24:03.269Z,2.80
2018-04-18T12:26:29.586Z,3.27
2018-04-18T12:28:55.880Z,2.70
2018-04-18T12:31:22.112Z,5.40
2018-04-18T12:33:48.417Z,2.73
2018-04-18T12:36:14.669Z,6.70
2018-04-18T12:38:40.927Z,3.00
2018-04-18T12:41:07.202Z,2.70
2018-04-18T12:43:33.453Z,4.40
2018-04-18T12:45:59.734Z,3.57
2018-04-18T12:48:26.057Z,4.30
2018-04-18T12:50:52.328Z,4.53
2018-04-18T12:53:19.368Z,3.83
2018-04-18T12:55:46.425Z,2.23
2018-04-18T12:58:13.429Z,2.43
2018-04-18T13:00:39.696Z,4.40
2018-04-18T13:03:06.703Z,5.00
2018-04-18T13:05:32.995Z,3.53
2018-04-18T13:07:59.277Z,6.43
2018-04-18T13:10:25.628Z,2.17
2018-04-18T13:12:52.652Z,2.33
2018-04-18T13:15:18.930Z,2.30
2018-04-18T13:17:45.212Z,2.10
2018-04-18T13:20:11.523Z,3.70
2018-04-18T13:22:37.821Z,3.33
2018-04-18T13:25:04.096Z,7.33
2018-04-18T13:27:30.406Z,3.13
2018-04-18T13:29:56.660Z,2.17
2018-04-18T13:32:23.023Z,6.10
2018-04-18T13:34:50.031Z,3.37
2018-04-18T13:37:16.367Z,6.03
2018-04-18T13:39:42.672Z,3.80
2018-04-18T13:42:09.016Z,2.83
2018-04-18T13:44:35.320Z,3.30
2018-04-18T13:47:01.653Z,4.80
2018-04-18T13:49:27.937Z,3.57
2018-04-18T13:51:54.951Z,2.40
2018-04-18T13:54:21.213Z,4.77
2018-04-18T13:56:48.235Z,3.03
2018-04-18T13:59:14.607Z,2.30
2018-04-18T14:01:41.632Z,3.63
2018-04-18T14:04:07.949Z,3.43
2018-04-18T14:06:34.216Z,3.00
2018-04-18T14:09:00.513Z,6.03
2018-04-18T14:11:26.816Z,2.40
2018-04-18T14:13:53.107Z,2.03
2018-04-18T14:16:19.376Z,1.80
2018-04-18T14:18:45.620Z,2.50
2018-04-18T14:21:11.860Z,3.50
2018-04-18T14:23:38.912Z,5.67
2018-04-18T14:26:05.169Z,3.50
2018-04-18T14:28:31.422Z,5.23
2018-04-18T14:30:57.646Z,3.33
2018-04-18T14:33:23.929Z,3.60
2018-04-18T14:35:50.899Z,3.00
2018-04-18T14:38:17.117Z,2.07
2018-04-18T14:40:44.146Z,1.87
2018-04-18T14:43:10.401Z,7.70
2018-04-18T14:45:36.654Z,2.03
2018-04-18T14:48:02.912Z,2.30
2018-04-18T14:50:29.157Z,2.57
2018-04-18T14:52:55.489Z,4.23
2018-04-18T14:55:21.759Z,2.10
2018-04-18T14:57:48.036Z,3.13
2018-04-18T15:00:14.350Z,2.23
2018-04-18T15:02:40.626Z,3.57
2018-04-18T15:05:07.693Z,2.50
2018-04-18T15:07:33.913Z,2.23
2018-04-18T15:10:00.167Z,2.20
2018-04-18T15:12:26.479Z,2.20
2018-04-18T15:14:52.729Z,5.33
2018-04-18T15:17:18.947Z,2.50
2018-04-18T15:19:45.186Z,2.20
2018-04-18T15:22:11.414Z,2.33
2018-04-18T15:24:37.655Z,2.93
2018-04-18T15:27:03.932Z,4.77
2018-04-18T15:29:30.204Z,3.90
2018-04-18T15:31:56.433Z,6.40
2018-04-18T15:34:22.720Z,4.43
2018-04-18T15:36:49.726Z,3.00
2018-04-18T15:39:15.993Z,6.23
2018-04-18T15:41:42.220Z,3.00
2018-04-18T15:44:09.236Z,4.10
2018-04-18T15:46:35.482Z,3.20
2018-04-18T15:49:02.471Z,2.93
2018-04-18T15:51:28.725Z,2.67
2018-04-18T15:53:55.030Z,3.27
2018-04-18T15:56:21.326Z,2.57
2018-04-18T15:58:47.633Z,3.40
2018-04-18T16:01:14.670Z,2.60
2018-04-18T16:03:41.003Z,3.53
2018-04-18T16:06:07.257Z,2.37
2018-04-18T16:08:33.489Z,3.60
2018-04-18T16:11:00.461Z,3.47
2018-04-18T16:13:26.751Z,2.63
2018-04-18T16:15:53.779Z,3.33
2018-04-18T16:18:20.073Z,4.93
2018-04-18T16:20:47.032Z,3.33
2018-04-18T16:23:13.257Z,9.93
2018-04-18T16:25:39.552Z,4.30
2018-04-18T16:28:05.805Z,2.50
2018-04-18T16:30:39.817Z,3.63
2018-04-18T16:33:06.102Z,13.03
2018-04-18T16:35:33.133Z,2.93
2018-04-18T16:37:59.397Z,3.13
2018-04-18T16:40:25.654Z,2.47
2018-04-18T16:42:51.949Z,5.40
2018-04-18T16:45:18.985Z,3.90
2018-04-18T16:47:50.308Z,7.60
2018-04-18T16:50:16.515Z,3.57
2018-04-18T16:52:42.785Z,4.90
2018-04-18T16:55:09.081Z,3.70
2018-04-18T16:57:35.329Z,5.30
2018-04-18T17:00:01.627Z,3.43
2018-04-18T17:02:27.905Z,5.40
2018-04-18T17:04:54.915Z,10.83
2018-04-18T17:07:21.241Z,10.33
2018-04-18T17:09:47.533Z,4.00
2018-04-18T17:12:13.765Z,9.20
2018-04-18T17:14:40.125Z,3.70
2018-04-18T17:17:06.386Z,3.30
2018-04-18T17:19:32.616Z,4.53
2018-04-18T17:21:58.889Z,2.57
2018-04-18T17:24:25.158Z,3.37
2018-04-18T17:26:51.441Z,3.30
2018-04-18T17:29:17.661Z,3.83
2018-04-18T17:31:43.949Z,5.30
2018-04-18T17:34:10.247Z,3.00
2018-04-18T17:36:36.617Z,5.77
2018-04-18T17:39:02.925Z,6.27
2018-04-18T17:41:29.185Z,4.27
2018-04-18T17:43:56.236Z,4.90
2018-04-18T17:46:23.249Z,5.30
2018-04-18T17:48:49.554Z,4.30
2018-04-18T17:51:15.797Z,4.50
2018-04-18T17:53:42.062Z,5.90
2018-04-18T17:56:08.300Z,3.17
2018-04-18T17:58:35.321Z,6.53
2018-04-18T18:01:01.575Z,2.90
2018-04-18T18:03:28.590Z,3.00
2018-04-18T18:05:54.845Z,2.63
2018-04-18T18:08:21.865Z,3.30
2018-04-18T18:10:48.139Z,3.10
2018-04-18T18:13:14.369Z,4.57
2018-04-18T18:15:40.614Z,2.70
2018-04-18T18:18:06.894Z,2.47
2018-04-18T18:20:33.129Z,3.07
2018-04-18T18:23:00.157Z,2.50
2018-04-18T18:25:26.372Z,2.77
2018-04-18T18:27:52.662Z,4.03
2018-04-18T18:30:19.965Z,2.87
2018-04-18T18:32:46.309Z,2.73
2018-04-18T18:35:12.599Z,3.03
2018-04-18T18:37:38.881Z,2.77
2018-04-18T18:40:05.898Z,3.77
2018-04-18T18:42:32.189Z,4.03
2018-04-18T18:44:58.473Z,4.83
2018-04-18T18:47:24.729Z,2.73
2018-04-18T18:49:51.058Z,6.93
2018-04-18T18:52:17.283Z,2.90
2018-04-18T18:54:44.264Z,4.17
2018-04-18T18:57:10.501Z,3.85
2018-04-18T18:59:36.795Z,4.63
2018-04-18T19:02:03.050Z,9.73
2018-04-18T19:04:29.402Z,3.10
2018-04-18T19:06:55.719Z,3.80
2018-04-18T19:09:21.948Z,3.10
2018-04-18T19:11:52.088Z,6.80
2018-04-18T19:14:18.401Z,3.87
2018-04-18T19:16:44.698Z,3.00
2018-04-18T19:19:10.989Z,3.77
2018-04-18T19:21:38.063Z,2.60
2018-04-18T19:24:04.350Z,4.73
2018-04-18T19:26:31.481Z,2.70
2018-04-18T19:28:57.892Z,4.00
2018-04-18T19:31:24.129Z,2.20
2018-04-18T19:33:50.406Z,2.50
2018-04-18T19:36:16.670Z,2.50
2018-04-18T19:38:42.910Z,2.10
2018-04-18T19:41:09.218Z,6.13
2018-04-18T19:43:35.501Z,3.70
2018-04-18T19:46:01.833Z,2.87
2018-04-18T19:48:28.232Z,2.83
2018-04-18T19:50:54.576Z,3.83
2018-04-18T19:53:20.980Z,8.40
2018-04-18T19:55:47.323Z,3.17
2018-04-18T19:58:13.612Z,3.33
2018-04-18T20:00:39.941Z,6.03
2018-04-18T20:03:06.177Z,6.73
2018-04-18T20:05:32.481Z,3.43
2018-04-18T20:07:59.521Z,4.00
2018-04-18T20:10:25.859Z,6.40
2018-04-18T20:12:52.107Z,2.90
2018-04-18T20:15:19.131Z,3.77
2018-04-18T20:17:45.408Z,13.03
2018-04-18T20:20:11.658Z,6.70
2018-04-18T20:22:38.058Z,3.03
2018-04-18T20:25:04.358Z,6.43
2018-04-18T20:27:30.665Z,4.70
2018-04-18T20:29:57.074Z,5.60
2018-04-18T20:32:23.340Z,4.13
2018-04-18T20:34:49.629Z,4.47
2018-04-18T20:37:15.899Z,5.50
2018-04-18T20:39:42.157Z,6.77
2018-04-18T20:42:09.133Z,9.23
2018-04-18T20:44:35.438Z,6.40
2018-04-18T20:47:02.464Z,8.90
2018-04-18T20:49:28.712Z,6.07
2018-04-18T20:51:54.996Z,6.37
2018-04-18T20:54:21.337Z,5.17
2018-04-18T20:56:47.669Z,11.07
2018-04-18T20:59:13.970Z,5.00
2018-04-18T21:01:40.357Z,5.70
2018-04-18T21:04:07.351Z,4.53
2018-04-18T21:06:33.619Z,4.57
2018-04-18T21:08:59.906Z,4.57
2018-04-18T21:11:26.196Z,4.83
2018-04-18T21:13:52.445Z,10.20
2018-04-18T21:16:18.713Z,4.27
2018-04-18T21:18:45.017Z,4.40
2018-04-18T21:21:11.270Z,7.80
2018-04-18T21:23:37.506Z,4.70
2018-04-18T21:26:03.813Z,5.20
2018-04-18T21:28:31.093Z,3.77
2018-04-18T21:30:57.382Z,10.40
2018-04-18T21:33:23.620Z,4.57
2018-04-18T21:35:49.873Z,4.47
2018-04-18T21:38:16.174Z,3.37
2018-04-18T21:40:42.484Z,3.67
2018-04-18T21:43:08.724Z,4.70
2018-04-18T21:45:34.964Z,3.50
2018-04-18T21:48:01.208Z,7.40
2018-04-18T21:50:30.564Z,3.47
2018-04-18T21:52:56.783Z,4.10
2018-04-18T21:55:23.766Z,4.10
2018-04-18T21:57:50.066Z,4.40
2018-04-18T22:00:17.077Z,3.97
2018-04-18T22:02:43.372Z,4.23
2018-04-18T22:05:09.614Z,4.03
2018-04-18T22:07:35.884Z,3.97
2018-04-18T22:10:02.982Z,3.57
2018-04-18T22:12:29.213Z,4.27
2018-04-18T22:14:55.480Z,3.60
2018-04-18T22:17:21.800Z,4.63
2018-04-18T22:19:48.096Z,3.37
2018-04-18T22:22:14.342Z,4.23
2018-04-18T22:24:40.616Z,10.43
2018-04-18T22:27:07.672Z,4.00
2018-04-18T22:29:40.017Z,19.03
2018-04-18T22:32:06.281Z,4.00
2018-04-18T22:34:32.532Z,4.77
2018-04-18T22:36:58.816Z,4.23
2018-04-18T22:39:25.791Z,4.10
2018-04-18T22:41:52.011Z,5.30
2018-04-18T22:44:18.264Z,4.33
2018-04-18T22:46:44.611Z,3.90
2018-04-18T22:49:10.916Z,3.43
2018-04-18T22:51:37.198Z,5.47
2018-04-18T22:54:04.207Z,4.53
2018-04-18T22:56:30.512Z,4.60
2018-04-18T22:58:56.780Z,4.20
2018-04-18T23:01:23.080Z,6.33
2018-04-18T23:03:49.327Z,4.27
2018-04-18T23:06:15.631Z,5.03
2018-04-18T23:08:41.899Z,3.70
2018-04-18T23:11:08.128Z,4.73
2018-04-18T23:13:34.394Z,4.10
2018-04-18T23:16:00.712Z,5.20
2018-04-18T23:18:28.780Z,4.93
2018-04-18T23:20:55.013Z,5.77
2018-04-18T23:23:22.073Z,4.57
2018-04-18T23:25:48.353Z,4.80
2018-04-18T23:28:14.624Z,4.47
2018-04-18T23:30:41.645Z,4.70
2018-04-18T23:33:07.908Z,6.87
2018-04-18T23:35:35.019Z,5.40
2018-04-18T23:38:01.264Z,4.67
2018-04-18T23:40:27.484Z,6.37
2018-04-18T23:42:54.571Z,4.47
2018-04-18T23:45:20.891Z,4.70
2018-04-18T23:47:47.173Z,3.90
2018-04-18T23:50:13.500Z,5.03
2018-04-18T23:52:39.791Z,5.67
2018-04-18T23:55:06.075Z,4.53
2018-04-18T23:57:32.312Z,6.60
2018-04-18T23:59:59.290Z,5.43
